Time;durP1;ratioP1;P1;durP2;ratioP2;P2;SDS_P1;SDS_P2;PMS_P1;PMS_P2;Temp;Humidity;BMP_temperature;BMP_pressure;BME280_temperature;BME280_humidity;BME280_pressure;Samples;Min_cycle;Max_cycle;Signal;HPM_P1;HPM_P2
2022/03/24 05:30:55;;;;;;;;;41.50;35.00;;;;;13.27;38.87;102350.81;5049891;27;45533;-78
2022/03/24 05:33:21;;;;;;;;;39.75;35.00;;;;;13.31;39.07;102358.81;5035694;28;45618;-79
2022/03/24 05:35:46;;;;;;;;;44.50;36.00;;;;;13.18;39.35;102347.56;5035123;28;45419;-78
2022/03/24 05:38:12;;;;;;;;;44.25;34.00;;;;;13.20;39.15;102343.88;5035159;28;45943;-78
2022/03/24 05:40:37;;;;;;;;;43.25;36.75;;;;;13.05;39.47;102319.19;5035418;28;45307;-77
2022/03/24 05:43:03;;;;;;;;;46.50;35.50;;;;;13.19;39.26;102350.19;5034237;28;45344;-78
2022/03/24 05:45:29;;;;;;;;;44.00;32.50;;;;;13.13;39.10;102345.00;5036073;28;45560;-79
2022/03/24 05:47:54;;;;;;;;;52.50;38.00;;;;;13.20;39.68;102351.94;5045183;28;45376;-80
2022/03/24 05:50:20;;;;;;;;;41.00;36.00;;;;;13.17;39.62;102367.34;5051167;28;45231;-80
2022/03/24 05:52:49;;;;;;;;;45.25;35.25;;;;;13.06;39.55;102339.81;5055180;28;45443;-79
2022/03/24 05:55:16;;;;;;;;;48.25;38.00;;;;;13.08;39.74;102348.72;5054836;28;45386;-80
2022/03/24 05:57:42;;;;;;;;;51.75;41.25;;;;;13.02;40.11;102357.84;5054848;28;45405;-79
2022/03/24 06:00:07;;;;;;;;;40.00;31.00;;;;;12.79;40.43;102345.09;5055394;28;45188;-79
2022/03/24 06:02:33;;;;;;;;;50.25;36.50;;;;;12.73;40.68;102347.09;5055160;28;45545;-78
2022/03/24 06:04:59;;;;;;;;;48.50;39.00;;;;;12.85;40.60;102360.16;5054438;28;45513;-77
2022/03/24 06:07:25;;;;;;;;;45.75;35.25;;;;;12.93;40.42;102368.03;5054990;28;46550;-73
2022/03/24 06:09:50;;;;;;;;;37.00;32.50;;;;;12.98;40.00;102368.78;5043251;28;45307;-75
2022/03/24 06:12:18;;;;;;;;;45.50;36.50;;;;;12.98;40.36;102361.59;5047913;28;45228;-72
2022/03/24 06:14:43;;;;;;;;;46.00;38.25;;;;;12.75;40.22;102337.16;5050209;28;45433;-78
2022/03/24 06:17:09;;;;;;;;;47.25;38.50;;;;;12.91;40.54;102367.19;5036342;28;47724;-72
2022/03/24 06:19:35;;;;;;;;;35.25;34.00;;;;;12.91;40.17;102359.13;5037067;28;45426;-73
2022/03/24 06:22:02;;;;;;;;;51.25;39.75;;;;;12.98;39.95;102369.66;5054666;28;45267;-76
2022/03/24 06:24:32;;;;;;;;;45.00;35.00;;;;;13.00;40.33;102370.50;5055525;28;45498;-75
2022/03/24 06:26:58;;;;;;;;;53.75;41.25;;;;;13.02;40.32;102368.63;5048934;28;45477;-72
2022/03/24 06:29:23;;;;;;;;;51.00;38.00;;;;;13.07;39.91;102371.19;5054594;28;45354;-78
2022/03/24 06:31:49;;;;;;;;;44.75;35.75;;;;;12.95;40.15;102366.16;5053072;28;45630;-73
2022/03/24 06:34:15;;;;;;;;;48.25;39.00;;;;;12.77;40.96;102368.47;5053546;28;45576;-74
2022/03/24 06:36:41;;;;;;;;;49.50;38.75;;;;;12.67;40.53;102347.28;5055175;28;45448;-77
2022/03/24 06:39:07;;;;;;;;;52.25;39.00;;;;;12.81;40.57;102371.97;5052979;28;45427;-79
2022/03/24 06:41:33;;;;;;;;;50.25;38.75;;;;;12.88;40.50;102376.25;5055256;28;45391;-78
2022/03/24 06:43:59;;;;;;;;;50.75;39.00;;;;;12.96;40.62;102373.31;5039175;28;45815;-80
2022/03/24 06:46:26;;;;;;;;;45.25;38.75;;;;;13.00;40.42;102370.50;5045621;28;45554;-78
2022/03/24 06:48:52;;;;;;;;;47.00;36.75;;;;;13.05;40.21;102371.22;5041896;28;45540;-78
2022/03/24 06:51:18;;;;;;;;;52.25;39.75;;;;;13.06;39.94;102377.50;5056189;28;45402;-78
2022/03/24 06:53:43;;;;;;;;;53.00;41.00;;;;;13.07;40.59;102372.06;5051416;28;45616;-75
2022/03/24 06:56:09;;;;;;;;;54.50;40.75;;;;;13.13;40.10;102376.38;5054086;28;45377;-76
2022/03/24 06:58:34;;;;;;;;;54.50;39.50;;;;;13.08;39.96;102352.31;5047139;28;45435;-78
2022/03/24 07:00:59;;;;;;;;;51.75;40.25;;;;;13.32;40.13;102380.31;5044002;28;45246;-77
2022/03/24 07:03:25;;;;;;;;;52.00;39.50;;;;;13.30;39.68;102379.47;5048231;28;45566;-77
2022/03/24 07:05:50;;;;;;;;;48.25;37.00;;;;;13.32;40.08;102374.03;5028108;28;47173;-73
2022/03/24 07:08:16;;;;;;;;;61.50;46.25;;;;;13.41;39.78;102382.72;5019632;28;45472;-73
2022/03/24 07:10:41;;;;;;;;;45.00;38.00;;;;;13.34;40.08;102381.16;5042597;28;45592;-74
2022/03/24 07:13:07;;;;;;;;;52.75;39.75;;;;;13.32;39.96;102387.50;5040893;28;45552;-73
2022/03/24 07:15:33;;;;;;;;;54.25;43.25;;;;;13.38;39.98;102387.31;5011840;28;48354;-73
2022/03/24 07:17:59;;;;;;;;;46.75;40.25;;;;;13.45;39.41;102392.47;5048656;28;45228;-73
2022/03/24 07:20:24;;;;;;;;;56.75;46.00;;;;;13.40;39.64;102377.38;5037209;28;45232;-75
2022/03/24 07:22:50;;;;;;;;;53.75;39.25;;;;;13.47;39.60;102381.63;5054248;28;45487;-72
2022/03/24 07:25:15;;;;;;;;;56.25;40.25;;;;;13.53;39.66;102374.22;5037085;28;46006;-73
2022/03/24 07:27:42;;;;;;;;;49.00;41.00;;;;;13.64;39.03;102388.25;5053460;28;45362;-72
2022/03/24 07:30:09;;;;;;;;;47.50;36.25;;;;;13.67;38.98;102387.28;5049340;28;45525;-73
2022/03/24 07:32:35;;;;;;;;;52.25;39.25;;;;;13.68;39.23;102374.69;5056064;28;45373;-73
2022/03/24 07:35:04;;;;;;;;;43.75;37.25;;;;;13.74;38.87;102380.75;5040083;28;45441;-75
2022/03/24 07:37:30;;;;;;;;;45.50;37.00;;;;;13.91;38.72;102391.84;5053868;28;45377;-76
2022/03/24 07:39:56;;;;;;;;;44.25;36.50;;;;;14.03;37.88;102394.13;5041411;28;45321;-75
2022/03/24 07:42:22;;;;;;;;;53.00;39.50;;;;;14.17;38.24;102390.09;5053881;28;45482;-74
2022/03/24 07:44:48;;;;;;;;;48.50;39.00;;;;;14.28;37.20;102390.59;5041863;28;46170;-74
2022/03/24 07:47:13;;;;;;;;;48.25;35.00;;;;;14.33;36.97;102384.09;5049936;28;45410;-73
2022/03/24 07:49:38;;;;;;;;;50.25;39.25;;;;;14.47;36.53;102397.13;5036346;28;45430;-74
2022/03/24 07:52:12;;;;;;;;;44.25;37.50;;;;;14.51;36.06;102387.13;5053701;28;45505;-73
2022/03/24 07:54:55;;;;;;;;;47.00;38.25;;;;;14.64;35.87;102401.91;5044030;28;45937;-71
2022/03/24 07:57:26;;;;;;;;;43.00;32.00;;;;;14.63;35.33;102392.06;5039321;28;45465;-74
2022/03/24 07:59:51;;;;;;;;;45.25;38.75;;;;;14.73;35.69;102402.47;5042794;28;45375;-73
2022/03/24 08:02:17;;;;;;;;;55.50;40.00;;;;;14.77;35.66;102395.13;5044213;28;45393;-75
2022/03/24 08:04:43;;;;;;;;;45.25;37.25;;;;;14.87;35.19;102395.69;5045209;28;46085;-74
2022/03/24 08:07:08;;;;;;;;;52.75;39.25;;;;;14.92;34.82;102399.97;5055860;28;45173;-74
2022/03/24 08:09:34;;;;;;;;;54.50;36.25;;;;;14.96;34.74;102392.63;5044535;28;45466;-75
2022/03/24 08:11:59;;;;;;;;;52.00;41.00;;;;;15.04;34.78;102398.63;5039496;28;45311;-74
2022/03/24 08:14:25;;;;;;;;;49.00;35.00;;;;;15.02;34.41;102389.69;5042713;28;46228;-74
2022/03/24 08:16:51;;;;;;;;;42.75;37.00;;;;;15.10;34.65;102395.69;5056290;28;45331;-75
2022/03/24 08:19:17;;;;;;;;;49.25;38.75;;;;;15.03;34.50;102372.56;5049592;28;45347;-73
2022/03/24 08:21:42;;;;;;;;;47.25;36.00;;;;;15.23;33.63;102398.78;5056178;28;45696;-75
2022/03/24 08:24:08;;;;;;;;;50.50;36.75;;;;;15.27;33.78;102404.00;5051033;28;45976;-73
2022/03/24 08:26:34;;;;;;;;;47.75;38.00;;;;;15.29;33.45;102398.56;5051780;28;45478;-75
2022/03/24 08:29:00;;;;;;;;;48.00;38.75;;;;;15.37;33.79;102402.72;5050766;28;45390;-75
2022/03/24 08:31:25;;;;;;;;;50.00;38.00;;;;;15.41;33.57;102403.47;5043202;28;45378;-76
2022/03/24 08:33:51;;;;;;;;;48.00;36.50;;;;;15.47;33.45;102404.13;5052486;28;45960;-76
2022/03/24 08:36:16;;;;;;;;;44.00;38.75;;;;;15.48;33.59;102395.03;5043590;28;45351;-75
2022/03/24 08:38:41;;;;;;;;;51.75;38.75;;;;;15.54;33.58;102390.38;5054342;28;45311;-75
2022/03/24 08:41:08;;;;;;;;;52.25;39.75;;;;;15.54;33.30;102387.69;5035247;28;45490;-74
2022/03/24 08:43:33;;;;;;;;;50.50;38.25;;;;;15.68;33.10;102396.97;5048987;28;45430;-73
2022/03/24 08:45:58;;;;;;;;;46.75;35.50;;;;;15.69;33.49;102404.16;5042966;28;45279;-75
2022/03/24 08:48:24;;;;;;;;;48.50;39.50;;;;;15.79;33.19;102410.97;5042040;28;45419;-76
2022/03/24 08:50:50;;;;;;;;;44.50;36.25;;;;;15.78;32.59;102402.91;5042729;28;45193;-75
2022/03/24 08:53:16;;;;;;;;;37.25;31.50;;;;;15.81;32.40;102400.97;5053942;28;45937;-73
2022/03/24 08:55:41;;;;;;;;;51.25;40.75;;;;;15.77;32.20;102391.19;5043407;28;45352;-76
2022/03/24 08:58:07;;;;;;;;;46.75;36.25;;;;;15.98;32.42;102408.38;5054514;28;45481;-76
2022/03/24 09:00:33;;;;;;;;;54.25;39.25;;;;;16.03;31.96;102419.88;5044923;28;45371;-76
2022/03/24 09:02:58;;;;;;;;;49.50;39.50;;;;;16.07;32.16;102408.00;5053645;28;45342;-74
2022/03/24 09:05:23;;;;;;;;;42.00;36.00;;;;;16.11;31.16;102415.00;5039692;28;45355;-74
2022/03/24 09:07:49;;;;;;;;;52.00;40.25;;;;;16.16;31.79;102414.84;5047230;28;45572;-75
2022/03/24 09:10:15;;;;;;;;;49.25;36.75;;;;;16.19;31.19;102415.56;5040501;28;45507;-76
2022/03/24 09:12:44;;;;;;;;;51.25;38.50;;;;;16.28;30.87;102411.59;5037920;28;46068;-76
2022/03/24 09:15:11;;;;;;;;;49.00;38.75;;;;;16.31;30.77;102416.88;5029166;28;45418;-76
2022/03/24 09:17:39;;;;;;;;;46.00;37.75;;;;;16.30;30.91;102400.69;5037109;28;45328;-74
2022/03/24 09:20:09;;;;;;;;;46.00;36.75;;;;;16.44;30.75;102419.91;5055007;28;45473;-76
2022/03/24 09:22:43;;;;;;;;;50.50;37.00;;;;;16.51;30.96;102421.41;5055054;28;46103;-74
2022/03/24 09:25:10;;;;;;;;;43.75;35.25;;;;;16.55;30.54;102412.22;5054262;28;45274;-75
2022/03/24 09:27:36;;;;;;;;;36.25;31.00;;;;;16.43;29.32;102381.13;5032855;28;45506;-75
2022/03/24 09:30:07;;;;;;;;;39.75;31.25;;;;;16.64;28.96;102411.84;5055070;28;45981;-77
2022/03/24 09:32:33;;;;;;;;;37.00;32.50;;;;;16.68;29.46;102412.56;5054388;28;45539;-75
2022/03/24 09:34:58;;;;;;;;;30.75;29.25;;;;;16.66;29.81;102395.53;5054826;28;45544;-75
2022/03/24 09:37:24;;;;;;;;;44.00;36.00;;;;;16.82;29.02;102413.72;5054995;28;45418;-75
2022/03/24 09:39:50;;;;;;;;;48.00;37.00;;;;;16.87;28.82;102427.03;5054840;28;45292;-76
2022/03/24 09:42:17;;;;;;;;;45.50;33.50;;;;;16.86;28.88;102409.03;5053811;28;46226;-76
2022/03/24 09:44:44;;;;;;;;;44.00;32.00;;;;;16.84;29.09;102400.13;5055190;28;45361;-77
2022/03/24 09:47:12;;;;;;;;;45.25;30.25;;;;;17.02;29.29;102420.91;5051257;28;45347;-76
2022/03/24 09:49:39;;;;;;;;;41.75;33.00;;;;;17.06;29.35;102419.84;5043735;28;45798;-76
2022/03/24 09:52:05;;;;;;;;;44.25;31.75;;;;;17.15;28.43;102418.53;5054892;28;46203;-76
2022/03/24 09:54:31;;;;;;;;;40.50;32.75;;;;;17.15;28.98;102404.97;5033764;28;45522;-75
2022/03/24 09:57:02;;;;;;;;;37.75;31.50;;;;;17.12;28.74;102394.28;5052755;28;45410;-75
2022/03/24 09:59:27;;;;;;;;;42.50;34.50;;;;;17.27;28.71;102407.09;5054327;28;45485;-74
2022/03/24 10:01:55;;;;;;;;;45.25;34.00;;;;;17.29;28.75;102408.78;5053738;28;46449;-75
2022/03/24 10:04:21;;;;;;;;;40.25;33.50;;;;;17.37;28.75;102414.72;5054410;28;45379;-76
2022/03/24 10:07:01;;;;;;;;;37.25;32.25;;;;;17.42;28.37;102400.97;5054430;28;45437;-76
2022/03/24 10:09:47;;;;;;;;;44.00;32.50;;;;;17.45;28.61;102398.09;5054114;28;45346;-75
2022/03/24 10:12:21;;;;;;;;;47.00;34.75;;;;;17.49;28.41;102401.53;5038769;28;46221;-75
2022/03/24 10:15:00;;;;;;;;;37.25;32.00;;;;;17.54;28.71;102404.91;5051611;28;45436;-75
2022/03/24 10:17:25;;;;;;;;;41.25;33.50;;;;;17.52;28.23;102388.72;5054468;28;45331;-75
2022/03/24 10:20:00;;;;;;;;;43.25;34.75;;;;;17.61;28.71;102387.38;5053930;28;45343;-74
2022/03/24 10:22:26;;;;;;;;;45.75;33.00;;;;;17.68;28.75;102400.63;5054203;28;45398;-78
2022/03/24 10:24:52;;;;;;;;;49.25;35.75;;;;;17.70;28.49;102382.41;5053882;28;45311;-75
2022/03/24 10:27:26;;;;;;;;;39.50;34.75;;;;;17.81;28.72;102397.28;5049704;28;45480;-73
2022/03/24 10:29:54;;;;;;;;;43.25;36.00;;;;;17.85;28.54;102391.63;5053914;28;45466;-75
2022/03/24 10:32:20;;;;;;;;;53.00;38.50;;;;;17.91;28.81;102395.88;5020152;28;48231;-75
2022/03/24 10:34:50;;;;;;;;;47.25;37.00;;;;;17.98;28.51;102392.75;5016082;28;45469;-74
2022/03/24 10:37:19;;;;;;;;;49.50;39.75;;;;;18.04;28.17;102389.72;5034051;28;45414;-75
2022/03/24 10:40:03;;;;;;;;;40.50;33.50;;;;;18.09;28.64;102389.50;5033789;28;45678;-74
2022/03/24 10:42:31;;;;;;;;;45.25;35.25;;;;;18.02;28.25;102367.25;5033765;28;45936;-76
2022/03/24 10:45:22;;;;;;;;;44.75;32.50;;;;;18.18;28.14;102383.63;5033864;28;45359;-75
2022/03/24 10:47:49;;;;;;;;;50.75;40.50;;;;;18.17;28.21;102370.09;5002694;28;45399;-75
2022/03/24 10:50:26;;;;;;;;;51.00;37.50;;;;;18.33;28.15;102385.53;5013664;28;45504;-75
2022/03/24 10:52:53;;;;;;;;;50.50;36.25;;;;;18.41;27.97;102379.69;5014738;28;46249;-74
2022/03/24 10:55:44;;;;;;;;;44.75;34.00;;;;;18.51;28.13;102381.84;4999337;28;45340;-75
2022/03/24 10:58:18;;;;;;;;;44.25;34.00;;;;;18.61;27.44;102382.28;5012185;28;45551;-73
2022/03/24 11:00:46;;;;;;;;;42.75;33.50;;;;;18.59;27.39;102367.00;5017478;28;45369;-75
2022/03/24 11:03:12;;;;;;;;;44.00;35.25;;;;;18.77;27.13;102376.88;5017150;28;46191;-74
2022/03/24 11:05:38;;;;;;;;;42.00;31.75;;;;;18.89;26.79;102378.91;5017198;28;45319;-74
2022/03/24 11:08:05;;;;;;;;;38.50;27.00;;;;;19.02;27.33;102376.41;5032354;28;45330;-75
2022/03/24 11:10:33;;;;;;;;;39.75;33.00;;;;;19.15;27.30;102375.63;5037017;28;45625;-74
2022/03/24 11:13:01;;;;;;;;;44.25;35.75;;;;;19.31;26.75;102370.22;5024030;28;45462;-73
2022/03/24 11:15:28;;;;;;;;;36.75;32.75;;;;;19.49;26.66;102365.59;5017144;28;45407;-74
2022/03/24 11:17:54;;;;;;;;;45.50;32.25;;;;;19.60;26.26;102352.25;5015995;28;45412;-75
2022/03/24 11:20:35;;;;;;;;;41.50;32.75;;;;;19.87;25.57;102369.69;5016204;28;45324;-72
2022/03/24 11:23:22;;;;;;;;;40.25;34.75;;;;;20.18;25.76;102360.56;5016064;28;46270;-71
2022/03/24 11:25:53;;;;;;;;;36.50;30.50;;;;;20.45;25.14;102362.59;5016420;28;45406;-71
2022/03/24 11:28:21;;;;;;;;;38.50;34.25;;;;;20.69;24.92;102359.22;5020076;28;45604;-73
2022/03/24 11:30:46;;;;;;;;;37.75;31.00;;;;;20.94;24.73;102364.00;5020812;28;45835;-70
2022/03/24 11:33:13;;;;;;;;;43.25;31.25;;;;;21.01;23.98;102339.97;5056206;28;45302;-72
2022/03/24 11:35:39;;;;;;;;;43.00;31.25;;;;;21.25;23.77;102346.59;5056646;28;45438;-73
2022/03/24 11:38:05;;;;;;;;;41.00;32.50;;;;;21.45;23.94;102345.25;5038420;28;45238;-72
2022/03/24 11:40:33;;;;;;;;;44.25;33.00;;;;;21.70;23.56;102350.84;5056659;28;45320;-72
2022/03/24 11:43:04;;;;;;;;;40.50;31.75;;;;;22.05;23.89;102336.69;5056583;28;45901;-75
2022/03/24 11:45:44;;;;;;;;;46.25;34.50;;;;;22.41;22.85;102336.84;5056685;28;45281;-71
2022/03/24 11:48:14;;;;;;;;;36.00;28.25;;;;;22.86;22.56;102332.75;5044934;28;45486;-79
2022/03/24 11:50:55;;;;;;;;;34.25;29.00;;;;;23.27;21.89;102320.63;5036086;28;45869;-74
2022/03/24 11:53:29;;;;;;;;;33.00;29.75;;;;;23.77;20.96;102327.78;5036187;28;47345;-75
2022/03/24 11:56:01;;;;;;;;;31.50;27.75;;;;;24.17;20.93;102328.31;5035011;28;45471;-75
2022/03/24 11:58:32;;;;;;;;;39.25;31.00;;;;;24.59;20.95;102320.44;5036479;28;45311;-74
2022/03/24 12:01:21;;;;;;;;;37.75;29.25;;;;;25.12;20.00;102322.50;5031516;28;46258;-74
2022/03/24 12:03:51;;;;;;;;;37.50;30.25;;;;;25.47;19.20;102321.44;5009602;28;46433;-75
2022/03/24 12:06:18;;;;;;;;;41.25;31.00;;;;;25.70;18.86;102311.28;5035925;28;45414;-74
2022/03/24 12:08:50;;;;;;;;;32.75;29.75;;;;;26.03;19.61;102304.78;5036267;28;45385;-74
2022/03/24 12:11:30;;;;;;;;;38.50;32.50;;;;;26.38;18.15;102306.22;5037851;28;45435;-75
2022/03/24 12:14:00;;;;;;;;;37.50;26.50;;;;;26.60;18.23;102301.56;5026838;28;46285;-79
2022/03/24 12:16:27;;;;;;;;;36.75;31.75;;;;;26.91;18.23;102296.97;5056421;28;45461;-78
2022/03/24 12:18:53;;;;;;;;;36.75;32.75;;;;;26.98;17.69;102279.75;5056981;28;45263;-78
2022/03/24 12:21:32;;;;;;;;;32.75;29.00;;;;;27.23;17.67;102288.50;5057100;28;45336;-80
2022/03/24 12:24:09;;;;;;;;;32.75;28.25;;;;;27.43;17.08;102291.19;5056938;28;46123;-80
2022/03/24 12:26:40;;;;;;;;;39.00;33.00;;;;;27.89;17.06;102264.84;5056319;28;45476;-83
2022/03/24 12:29:11;;;;;;;;;40.00;32.75;;;;;28.73;15.68;102287.91;5056740;28;45469;-73
2022/03/24 12:31:56;;;;;;;;;36.50;31.00;;;;;29.47;15.09;102259.34;5056381;28;45603;-75
2022/03/24 12:34:27;;;;;;;;;36.50;31.75;;;;;30.28;15.25;102249.91;5057099;28;46354;-80
2022/03/24 12:36:52;;;;;;;;;38.50;33.25;;;;;31.29;14.39;102262.06;5058060;28;45258;-76
2022/03/24 12:39:36;;;;;;;;;27.00;25.50;;;;;32.20;13.63;102260.09;5057416;28;45591;-77
2022/03/24 12:42:15;;;;;;;;;33.00;30.00;;;;;33.05;13.10;102277.94;5057141;28;46082;-78
2022/03/24 12:45:16;;;;;;;;;30.50;28.00;;;;;33.89;11.95;102254.00;5047574;28;47084;-77
2022/03/24 12:47:47;;;;;;;;;29.25;25.50;;;;;34.49;11.51;102259.53;5051199;28;45442;-77
2022/03/24 12:50:16;;;;;;;;;39.00;29.00;;;;;35.04;11.31;102243.41;5042288;28;45527;-78
2022/03/24 12:52:58;;;;;;;;;34.25;24.75;;;;;35.50;10.91;102244.81;5058063;28;45154;-78
2022/03/24 12:55:31;;;;;;;;;37.00;28.25;;;;;36.06;11.04;102244.09;5055719;28;46148;-79
2022/03/24 12:58:02;;;;;;;;;26.25;24.50;;;;;36.45;10.48;102236.03;5057704;28;45345;-77
2022/03/24 13:00:32;;;;;;;;;30.00;26.50;;;;;36.73;10.47;102228.53;5059770;28;45630;-77
2022/03/24 13:03:00;;;;;;;;;31.50;26.25;;;;;37.02;9.77;102221.75;5059255;28;45338;-79
2022/03/24 13:05:28;;;;;;;;;28.25;23.50;;;;;37.25;9.68;102231.78;5058738;28;45314;-79
2022/03/24 13:07:55;;;;;;;;;28.25;25.75;;;;;37.57;9.65;102227.31;5059536;28;45420;-78
2022/03/24 13:10:25;;;;;;;;;30.75;26.25;;;;;37.76;9.32;102218.13;5056625;28;45694;-78
2022/03/24 13:12:54;;;;;;;;;24.50;22.50;;;;;37.92;8.99;102209.31;5038283;28;45594;-79
2022/03/24 13:15:25;;;;;;;;;29.25;26.75;;;;;38.16;9.02;102217.06;5056995;28;45773;-79
2022/03/24 13:17:53;;;;;;;;;27.50;26.00;;;;;38.32;8.94;102210.16;5056856;28;45327;-79
2022/03/24 13:20:20;;;;;;;;;29.25;25.75;;;;;38.54;8.87;102208.81;5056274;28;45403;-78
2022/03/24 13:22:49;;;;;;;;;29.25;26.25;;;;;38.72;8.68;102199.72;5055418;28;45590;-78
2022/03/24 13:25:17;;;;;;;;;32.00;26.50;;;;;38.88;8.93;102210.44;5054942;28;46068;-78
2022/03/24 13:27:46;;;;;;;;;28.50;25.00;;;;;38.89;8.66;102180.44;5055611;28;45786;-77
2022/03/24 13:30:17;;;;;;;;;32.75;27.00;;;;;38.94;8.46;102198.38;5056532;28;45263;-78
2022/03/24 13:32:44;;;;;;;;;27.00;23.00;;;;;38.89;8.34;102198.13;5035827;28;46249;-78
2022/03/24 13:35:16;;;;;;;;;22.50;18.75;;;;;38.80;8.51;102178.97;5049134;28;45801;-76
2022/03/24 13:37:57;;;;;;;;;28.75;24.50;;;;;38.67;8.07;102185.50;5062479;28;45339;-78
2022/03/24 13:40:30;;;;;;;;;28.00;25.75;;;;;38.82;7.92;102197.31;5060867;28;45267;-78
2022/03/24 13:42:56;;;;;;;;;24.00;22.25;;;;;38.88;8.14;102202.00;5058361;28;45583;-79
2022/03/24 13:45:22;;;;;;;;;26.50;21.25;;;;;38.76;8.43;102172.97;5054416;28;46034;-77
2022/03/24 13:47:56;;;;;;;;;26.75;22.25;;;;;38.91;7.79;102184.75;5055319;28;45389;-76
2022/03/24 13:50:27;;;;;;;;;24.00;22.50;;;;;38.70;7.61;102159.84;5055278;28;45420;-76
2022/03/24 13:52:54;;;;;;;;;20.75;18.25;;;;;38.71;8.08;102177.53;5055198;28;45387;-77
2022/03/24 13:55:28;;;;;;;;;26.00;21.25;;;;;38.66;8.06;102180.13;5054548;28;45666;-76
2022/03/24 13:58:02;;;;;;;;;27.50;24.75;;;;;38.68;7.90;102178.81;5054923;28;45389;-76
2022/03/24 14:00:31;;;;;;;;;23.75;22.75;;;;;38.62;8.13;102176.06;5054761;28;45282;-77
2022/03/24 14:03:23;;;;;;;;;25.75;23.75;;;;;38.55;8.03;102162.03;5054663;28;45512;-77
2022/03/24 14:06:22;;;;;;;;;23.00;21.25;;;;;38.47;7.82;102160.31;5033756;28;46204;-77
2022/03/24 14:08:53;;;;;;;;;28.50;20.00;;;;;38.33;8.18;102161.44;5041617;28;45346;-78
2022/03/24 14:11:24;;;;;;;;;20.75;19.75;;;;;38.24;8.50;102158.00;5054708;28;45413;-76
2022/03/24 14:13:51;;;;;;;;;20.50;20.25;;;;;38.21;8.34;102152.84;5054399;28;45561;-77
2022/03/24 14:16:25;;;;;;;;;28.00;21.00;;;;;38.14;8.06;102159.53;5053729;28;46161;-77
2022/03/24 14:19:04;;;;;;;;;18.50;15.25;;;;;37.97;8.51;102155.44;5054863;28;45332;-76
2022/03/24 14:21:42;;;;;;;;;26.00;23.75;;;;;37.85;8.28;102156.13;5054058;28;45331;-77
2022/03/24 14:24:08;;;;;;;;;25.50;24.00;;;;;37.57;7.98;102148.97;5053764;28;45627;-76
2022/03/24 14:26:34;;;;;;;;;23.00;20.75;;;;;36.82;8.51;102136.97;5053964;28;45583;-76
2022/03/24 14:29:00;;;;;;;;;23.00;19.50;;;;;35.54;9.16;102130.91;5053448;28;45278;-78
2022/03/24 14:31:30;;;;;;;;;25.50;21.50;;;;;35.63;9.25;102138.06;5054164;28;45527;-78
2022/03/24 14:34:00;;;;;;;;;25.50;18.25;;;;;35.84;9.10;102142.78;5054335;28;45615;-78
2022/03/24 14:36:43;;;;;;;;;21.00;20.00;;;;;35.90;9.25;102137.22;5054076;28;45965;-76
2022/03/24 14:39:20;;;;;;;;;21.25;18.00;;;;;36.14;9.01;102132.25;5053516;28;45426;-77
2022/03/24 14:41:49;;;;;;;;;26.50;25.50;;;;;36.16;9.11;102130.09;5054144;28;45310;-77
2022/03/24 14:44:16;;;;;;;;;23.00;22.00;;;;;36.23;9.56;102126.34;5053209;28;45508;-76
2022/03/24 14:46:43;;;;;;;;;26.00;26.00;;;;;36.24;9.47;102116.03;5054078;28;46078;-76
2022/03/24 14:49:10;;;;;;;;;28.25;25.25;;;;;36.26;9.32;102128.69;5032217;28;45552;-79
2022/03/24 14:51:37;;;;;;;;;28.25;25.00;;;;;36.16;9.66;102117.00;5047132;28;45704;-75
2022/03/24 14:54:04;;;;;;;;;26.00;23.25;;;;;36.07;9.88;102097.84;5053372;28;45599;-77
2022/03/24 14:56:30;;;;;;;;;25.25;18.50;;;;;36.06;9.83;102108.16;5053777;28;45421;-77
2022/03/24 14:58:57;;;;;;;;;30.00;28.50;;;;;35.82;9.90;102112.28;5053719;28;45365;-76
2022/03/24 15:01:24;;;;;;;;;25.50;23.50;;;;;35.57;9.87;102103.47;5054109;28;45481;-77
2022/03/24 15:03:51;;;;;;;;;25.25;22.00;;;;;35.43;10.52;102098.84;5053989;28;45635;-76
2022/03/24 15:06:17;;;;;;;;;24.75;23.75;;;;;35.27;10.78;102104.69;5053842;28;46097;-78
2022/03/24 15:08:46;;;;;;;;;27.75;24.50;;;;;34.95;10.65;102100.50;5035728;28;45631;-75
2022/03/24 15:11:12;;;;;;;;;25.50;23.75;;;;;34.64;11.05;102089.56;5053471;28;45474;-77
2022/03/24 15:13:38;;;;;;;;;27.75;24.75;;;;;34.58;11.24;102100.66;5053452;28;45394;-75
2022/03/24 15:16:04;;;;;;;;;31.00;28.00;;;;;34.27;10.98;102104.53;5053306;28;45488;-77
2022/03/24 15:18:36;;;;;;;;;26.25;22.75;;;;;33.88;11.32;102102.00;5035261;28;45390;-76
2022/03/24 15:21:02;;;;;;;;;25.50;24.50;;;;;33.56;11.57;102099.50;5053516;28;45467;-76
2022/03/24 15:23:28;;;;;;;;;25.50;22.75;;;;;33.20;11.82;102088.16;5033553;28;47204;-75
2022/03/24 15:25:54;;;;;;;;;34.00;25.25;;;;;32.89;11.79;102074.31;5034304;28;48318;-75
2022/03/24 15:28:20;;;;;;;;;27.50;25.50;;;;;32.66;11.83;102079.84;5052499;28;45411;-75
2022/03/24 15:30:46;;;;;;;;;27.75;25.00;;;;;32.53;12.69;102094.28;5053289;28;45728;-76
2022/03/24 15:33:12;;;;;;;;;28.00;24.50;;;;;32.36;12.40;102087.09;5053435;28;45475;-76
2022/03/24 15:35:38;;;;;;;;;28.00;25.00;;;;;32.20;12.57;102084.38;5052948;28;45940;-76
2022/03/24 15:38:05;;;;;;;;;32.50;25.00;;;;;32.18;12.04;102084.56;5053218;28;45440;-76
2022/03/24 15:40:31;;;;;;;;;24.75;23.50;;;;;32.13;12.59;102087.00;5054455;28;45538;-78
2022/03/24 15:42:57;;;;;;;;;28.00;26.00;;;;;32.17;12.40;102095.84;5056979;28;45489;-76
2022/03/24 15:45:22;;;;;;;;;20.00;19.25;;;;;32.02;12.92;102083.72;5056848;28;45254;-75
2022/03/24 15:47:48;;;;;;;;;25.50;21.50;;;;;31.85;12.40;102064.34;5056956;28;45362;-75
2022/03/24 15:50:17;;;;;;;;;26.25;23.25;;;;;31.97;12.12;102072.31;5056726;28;45196;-77
2022/03/24 15:52:44;;;;;;;;;18.00;17.00;;;;;32.02;12.44;102101.25;5056839;28;45381;-77
2022/03/24 15:55:11;;;;;;;;;28.25;21.75;;;;;31.92;12.73;102086.69;5057778;28;46281;-80
2022/03/24 15:57:42;;;;;;;;;25.25;22.25;;;;;31.90;12.55;102089.63;5040704;28;45512;-79
2022/03/24 16:00:12;;;;;;;;;29.50;22.00;;;;;31.94;12.58;102095.72;5057806;28;45540;-80
2022/03/24 16:02:39;;;;;;;;;30.75;21.50;;;;;31.72;12.21;102064.06;5057752;28;45549;-82
2022/03/24 16:05:07;;;;;;;;;32.50;25.25;;;;;31.70;12.84;102090.22;5056613;28;46192;-81
2022/03/24 16:07:33;;;;;;;;;29.75;24.00;;;;;31.54;12.92;102089.19;5057037;28;45392;-83
2022/03/24 16:09:59;;;;;;;;;23.75;20.25;;;;;31.24;13.45;102048.31;5056531;28;45293;-78
2022/03/24 16:12:25;;;;;;;;;27.50;22.50;;;;;31.24;12.99;102059.38;5037722;28;45566;-78
2022/03/24 16:14:51;;;;;;;;;25.75;24.75;;;;;31.37;13.73;102097.69;5056117;28;45572;-77
2022/03/24 16:17:16;;;;;;;;;28.50;23.50;;;;;31.21;13.75;102098.53;5056274;28;45335;-78
2022/03/24 16:19:41;;;;;;;;;25.25;23.00;;;;;30.90;13.28;102066.94;5056125;28;45478;-76
2022/03/24 16:22:07;;;;;;;;;22.50;15.50;;;;;30.92;13.49;102087.03;5056379;28;45459;-78
2022/03/24 16:24:32;;;;;;;;;26.00;21.50;;;;;30.77;14.08;102089.63;5055372;28;46303;-76
2022/03/24 16:26:57;;;;;;;;;25.75;22.50;;;;;30.70;13.63;102075.59;5056176;28;45488;-78
2022/03/24 16:29:23;;;;;;;;;19.25;17.50;;;;;30.67;13.49;102086.13;5056164;28;45431;-78
2022/03/24 16:31:48;;;;;;;;;26.00;21.75;;;;;30.54;13.96;102077.44;5056204;28;45993;-77
2022/03/24 16:34:14;;;;;;;;;28.50;24.75;;;;;30.27;14.04;102089.59;5055769;28;45401;-77
2022/03/24 16:36:39;;;;;;;;;23.75;22.50;;;;;30.09;14.07;102090.53;5056197;28;45330;-76
2022/03/24 16:39:05;;;;;;;;;22.25;21.00;;;;;29.91;14.01;102091.63;5056207;28;45420;-76
2022/03/24 16:41:30;;;;;;;;;27.50;23.00;;;;;29.77;14.39;102095.00;5055641;28;45570;-78
2022/03/24 16:43:57;;;;;;;;;30.75;25.25;;;;;29.45;14.16;102067.97;5054821;28;46014;-76
2022/03/24 16:46:23;;;;;;;;;22.50;21.00;;;;;29.35;14.57;102085.50;5055765;28;45395;-77
2022/03/24 16:48:48;;;;;;;;;30.25;24.00;;;;;29.08;14.45;102081.97;5055442;28;45281;-77